Frankfort Heights, Illinois
Current Conditions -  °F | °C
As of 11:53 AM on Tuesday 21 Oct 2014 (Local Time) from KMWA Reporting Station
Clear Clear  
Wind Chill: 64°   Ceiling: Unl
Heat Index: 64°   Visibility: 20mi
Dew Point: 50°   Wind: 9mph
Humidity: 59%   Direction: 330°NNW
Pressure: 30.12"   Gusts: NA
Location:  37.9°N, 88.89°W
Report Text: KMWA 211653Z 33008KT 20SM SKC 18/10 A3012
Loading
Personal Weather Stations






























Interactive Weather Map
Tropical Storm Tracking
New forecast layout! Learn more

10-Day Weather Forecast

Advertisements
Track Severe Weather on mobile